createdAt,value
2023-04-11T00:01:11.544Z,81.68
2023-04-11T00:03:39.941Z,81.20
2023-04-11T00:06:08.880Z,81.25
2023-04-11T00:08:37.223Z,81.71
2023-04-11T00:11:05.811Z,81.40
2023-04-11T00:13:34.508Z,81.46
2023-04-11T00:16:05.731Z,81.87
2023-04-11T00:18:36.255Z,81.74
2023-04-11T00:21:05.488Z,81.39
2023-04-11T00:23:33.426Z,81.82
2023-04-11T00:26:01.400Z,81.62
2023-04-11T00:28:29.352Z,82.00
2023-04-11T00:30:57.311Z,81.11
2023-04-11T00:33:26.630Z,81.21
2023-04-11T00:35:54.673Z,81.39
2023-04-11T00:38:22.565Z,81.44
2023-04-11T00:40:50.682Z,81.57
2023-04-11T00:43:18.597Z,81.21
2023-04-11T00:45:48.026Z,81.77
2023-04-11T00:48:16.798Z,81.65
2023-04-11T00:50:46.665Z,82.00
2023-04-11T00:53:14.672Z,81.90
2023-04-11T00:55:43.204Z,81.68
2023-04-11T00:58:11.632Z,82.10
2023-04-11T01:00:39.737Z,81.81
2023-04-11T01:03:08.434Z,82.11
2023-04-11T01:05:36.811Z,81.93
2023-04-11T01:08:06.372Z,81.47
2023-04-11T01:10:34.535Z,81.13
2023-04-11T01:13:02.795Z,81.00
2023-04-11T01:15:31.041Z,80.74
2023-04-11T01:18:02.130Z,80.87
2023-04-11T01:20:31.903Z,81.00
2023-04-11T01:23:00.453Z,80.77
2023-04-11T01:25:29.857Z,80.52
2023-04-11T01:27:58.239Z,80.64
2023-04-11T01:30:26.220Z,80.74
2023-04-11T01:32:54.171Z,80.91
2023-04-11T01:35:22.269Z,80.72
2023-04-11T01:37:50.178Z,80.50
2023-04-11T01:40:21.401Z,79.56
2023-04-11T01:42:51.905Z,79.73
2023-04-11T01:45:20.359Z,79.89
2023-04-11T01:47:50.723Z,80.06
2023-04-11T01:50:18.935Z,80.05
2023-04-11T01:52:46.850Z,79.69
2023-04-11T01:55:14.770Z,79.90
2023-04-11T01:57:42.694Z,79.47
2023-04-11T02:00:13.988Z,79.44
2023-04-11T02:02:42.255Z,79.64
2023-04-11T02:05:10.601Z,79.67
2023-04-11T02:07:38.686Z,79.70
2023-04-11T02:10:08.042Z,79.46
2023-04-11T02:12:35.970Z,79.92
2023-04-11T02:15:04.053Z,79.68
2023-04-11T02:17:33.359Z,79.67
2023-04-11T02:20:01.807Z,79.33
2023-04-11T02:22:29.853Z,79.55
2023-04-11T02:24:57.793Z,79.26
2023-04-11T02:27:25.730Z,79.12
2023-04-11T02:29:53.624Z,78.62
2023-04-11T02:32:21.650Z,78.88
2023-04-11T02:34:53.308Z,76.67
2023-04-11T02:37:21.216Z,77.23
2023-04-11T02:39:49.113Z,77.65
2023-04-11T02:42:16.991Z,78.42
2023-04-11T02:44:44.932Z,77.35
2023-04-11T02:47:12.808Z,77.42
2023-04-11T02:49:41.895Z,77.55
2023-04-11T02:52:11.244Z,77.58
2023-04-11T02:54:39.137Z,77.00
2023-04-11T02:57:07.065Z,77.30
2023-04-11T02:59:34.951Z,78.53
2023-04-11T03:02:03.185Z,78.67
2023-04-11T03:04:31.481Z,78.33
2023-04-11T03:06:59.475Z,79.13
2023-04-11T03:09:28.775Z,79.36
2023-04-11T03:11:57.619Z,79.92
2023-04-11T03:14:25.638Z,79.15
2023-04-11T03:16:53.528Z,80.03
2023-04-11T03:19:21.479Z,80.38
2023-04-11T03:21:49.387Z,80.31
2023-04-11T03:24:17.869Z,79.52
2023-04-11T03:26:47.143Z,79.51
2023-04-11T03:29:15.070Z,79.61
2023-04-11T03:31:43.097Z,78.50
2023-04-11T03:34:11.069Z,78.85
2023-04-11T03:36:39.059Z,78.52
2023-04-11T03:39:06.958Z,78.93
2023-04-11T03:41:34.916Z,78.56
2023-04-11T03:44:04.517Z,78.75
2023-04-11T03:46:32.492Z,78.55
2023-04-11T03:49:00.441Z,79.03
2023-04-11T03:51:28.359Z,78.82
2023-04-11T03:53:56.249Z,79.00
2023-04-11T03:56:24.387Z,79.17
2023-04-11T03:58:52.532Z,80.22
2023-04-11T04:01:21.861Z,79.30
2023-04-11T04:03:49.996Z,79.84
2023-04-11T04:06:18.182Z,79.53
2023-04-11T04:08:46.278Z,79.16
2023-04-11T04:11:14.184Z,79.35
2023-04-11T04:13:42.081Z,78.58
2023-04-11T04:16:10.711Z,78.86
2023-04-11T04:18:40.090Z,78.22
2023-04-11T04:21:08.663Z,78.96
2023-04-11T04:23:39.210Z,78.38
2023-04-11T04:26:07.690Z,78.92
2023-04-11T04:28:35.601Z,78.83
2023-04-11T04:31:04.159Z,78.46
2023-04-11T04:33:33.128Z,78.42
2023-04-11T04:36:04.387Z,78.71
2023-04-11T04:38:32.994Z,78.26
2023-04-11T04:41:00.937Z,79.70
2023-04-11T04:43:32.367Z,79.17
2023-04-11T04:46:00.507Z,79.40
2023-04-11T04:48:28.448Z,79.22
2023-04-11T04:50:56.391Z,79.41
2023-04-11T04:53:25.887Z,79.81
2023-04-11T04:55:53.775Z,79.65
2023-04-11T04:58:21.717Z,79.76
2023-04-11T05:00:55.942Z,79.20
2023-04-11T05:03:24.318Z,78.89
2023-04-11T05:05:52.401Z,79.55
2023-04-11T05:08:21.363Z,78.79
2023-04-11T05:10:50.684Z,77.54
2023-04-11T05:13:18.615Z,78.96
2023-04-11T05:15:49.180Z,78.07
2023-04-11T05:18:17.096Z,78.45
2023-04-11T05:20:45.054Z,79.06
2023-04-11T05:23:12.938Z,79.81
2023-04-11T05:25:40.864Z,78.50
2023-04-11T05:28:10.167Z,78.92
2023-04-11T05:30:38.149Z,78.43
2023-04-11T05:33:06.237Z,77.31
2023-04-11T05:35:34.179Z,77.64
2023-04-11T05:38:02.106Z,77.71
2023-04-11T05:40:30.032Z,77.58
2023-04-11T05:42:57.926Z,78.06
2023-04-11T05:45:27.264Z,78.18
2023-04-11T05:47:56.834Z,76.99
2023-04-11T05:50:25.061Z,78.00
2023-04-11T05:52:52.990Z,78.59
2023-04-11T05:55:20.952Z,78.84
2023-04-11T05:57:48.861Z,78.52
2023-04-11T06:00:18.276Z,77.81
2023-04-11T06:02:49.345Z,77.93
2023-04-11T06:05:18.065Z,78.73
2023-04-11T06:07:46.521Z,77.81
2023-04-11T06:10:14.840Z,78.43
2023-04-11T06:12:42.737Z,78.75
2023-04-11T06:15:11.885Z,77.43
2023-04-11T06:17:39.837Z,78.11
2023-04-11T06:20:10.444Z,77.97
2023-04-11T06:22:40.212Z,78.29
2023-04-11T06:25:08.878Z,78.40
2023-04-11T06:27:37.038Z,78.47
2023-04-11T06:30:06.081Z,78.53
2023-04-11T06:32:34.044Z,77.58
2023-04-11T06:35:02.087Z,78.65
2023-04-11T06:37:31.486Z,78.83
2023-04-11T06:40:00.327Z,80.19
2023-04-11T06:42:28.948Z,79.67
2023-04-11T06:44:56.968Z,78.80
2023-04-11T06:47:25.010Z,78.51
2023-04-11T06:49:53.042Z,78.72
2023-04-11T06:52:20.955Z,78.54
2023-04-11T06:54:50.901Z,78.90
2023-04-11T06:57:19.200Z,79.12
2023-04-11T06:59:47.099Z,78.97
2023-04-11T07:02:15.623Z,79.06
2023-04-11T07:04:43.786Z,79.85
2023-04-11T07:07:11.744Z,80.00
2023-04-11T07:09:39.674Z,79.54
2023-04-11T07:12:09.123Z,79.88
2023-04-11T07:14:37.131Z,80.07
2023-04-11T07:17:05.080Z,79.68
2023-04-11T07:19:32.984Z,79.37
2023-04-11T07:22:01.667Z,80.16
2023-04-11T07:24:31.153Z,79.95
2023-04-11T07:27:01.831Z,81.37
2023-04-11T07:29:32.320Z,80.50
2023-04-11T07:32:00.360Z,80.06
2023-04-11T07:34:28.384Z,79.93
2023-04-11T07:37:00.838Z,79.84
2023-04-11T07:39:28.919Z,80.88
2023-04-11T07:41:57.170Z,80.78
2023-04-11T07:44:27.152Z,81.26
2023-04-11T07:46:56.625Z,80.45
2023-04-11T07:49:24.587Z,81.27
2023-04-11T07:51:52.493Z,80.78
2023-04-11T07:54:20.386Z,80.95
2023-04-11T07:56:48.376Z,80.70
2023-04-11T07:59:17.366Z,80.19
2023-04-11T08:01:45.393Z,80.83
2023-04-11T08:04:15.257Z,81.51
2023-04-11T08:06:43.539Z,82.10
2023-04-11T08:09:11.467Z,81.88
2023-04-11T08:11:39.574Z,82.82
2023-04-11T08:14:07.522Z,82.16
2023-04-11T08:16:36.043Z,82.39
2023-04-11T08:19:06.954Z,81.61
2023-04-11T08:21:36.296Z,81.88
2023-04-11T08:24:04.274Z,81.20
2023-04-11T08:26:32.228Z,82.25
2023-04-11T08:29:00.168Z,81.31
2023-04-11T08:31:28.516Z,81.60
2023-04-11T08:33:59.287Z,80.28
2023-04-11T08:36:28.772Z,81.06
2023-04-11T08:39:00.196Z,81.12
2023-04-11T08:41:30.714Z,79.07
2023-04-11T08:43:59.384Z,79.61
2023-04-11T08:46:27.463Z,80.74
2023-04-11T08:48:56.497Z,81.42
2023-04-11T08:51:26.952Z,80.38
2023-04-11T08:53:59.866Z,80.97
2023-04-11T08:56:28.343Z,79.94
2023-04-11T08:58:56.466Z,79.60
2023-04-11T09:01:29.799Z,79.34
2023-04-11T09:03:58.643Z,78.57
2023-04-11T09:06:30.727Z,78.02
2023-04-11T09:09:01.681Z,75.63
2023-04-11T09:11:29.951Z,75.99
2023-04-11T09:14:07.513Z,74.91
2023-04-11T09:16:35.925Z,74.61
2023-04-11T09:19:04.601Z,75.61
2023-04-11T09:21:32.660Z,76.79
2023-04-11T09:24:17.525Z,77.23
2023-04-11T09:26:45.782Z,75.74
2023-04-11T09:29:22.444Z,75.84
2023-04-11T09:31:50.784Z,75.43
2023-04-11T09:34:26.000Z,73.38
2023-04-11T09:36:56.321Z,73.83
2023-04-11T09:39:28.597Z,73.33
2023-04-11T09:41:56.838Z,72.79
2023-04-11T09:44:36.979Z,73.58
2023-04-11T09:47:05.222Z,73.11
2023-04-11T09:49:34.563Z,73.68
2023-04-11T09:52:03.086Z,73.68
2023-04-11T09:54:33.738Z,73.80
2023-04-11T09:57:01.872Z,74.59
2023-04-11T09:59:31.304Z,73.89
2023-04-11T10:01:59.858Z,73.80
2023-04-11T10:04:28.765Z,73.10
2023-04-11T10:07:07.397Z,73.35
2023-04-11T10:09:39.342Z,74.17
2023-04-11T10:12:07.882Z,72.74
2023-04-11T10:14:45.747Z,73.17
2023-04-11T10:17:18.530Z,72.95
2023-04-11T10:19:50.960Z,72.44
2023-04-11T10:22:58.650Z,72.93
2023-04-11T10:25:29.128Z,71.90
2023-04-11T10:28:01.147Z,71.74
2023-04-11T10:31:04.087Z,72.58
2023-04-11T10:33:32.518Z,72.32
2023-04-11T10:36:03.788Z,72.69
2023-04-11T10:38:51.294Z,71.61
2023-04-11T10:41:27.247Z,70.90
2023-04-11T10:44:18.591Z,71.54
2023-04-11T10:46:48.727Z,71.63
2023-04-11T10:49:35.040Z,71.84
2023-04-11T10:52:22.938Z,72.10
2023-04-11T10:54:51.819Z,71.78
2023-04-11T10:57:21.738Z,71.36
2023-04-11T11:00:10.688Z,71.01
2023-04-11T11:02:40.563Z,71.45
2023-04-11T11:05:22.661Z,70.32
2023-04-11T11:07:52.481Z,69.97
2023-04-11T11:10:39.461Z,70.26
2023-04-11T11:13:09.033Z,69.75
2023-04-11T11:15:38.571Z,69.47
2023-04-11T11:18:09.437Z,69.33
2023-04-11T11:20:38.050Z,68.33
2023-04-11T11:23:07.317Z,69.23
2023-04-11T11:25:35.773Z,69.12
2023-04-11T11:28:05.645Z,69.49
2023-04-11T11:30:35.559Z,69.46
2023-04-11T11:33:17.247Z,68.14
2023-04-11T11:35:47.637Z,69.19
2023-04-11T11:38:15.632Z,68.75
2023-04-11T11:40:43.711Z,68.80
2023-04-11T11:43:11.672Z,68.28
2023-04-11T11:45:41.156Z,67.86
2023-04-11T11:48:09.132Z,67.88
2023-04-11T11:50:37.503Z,67.76
2023-04-11T11:53:15.080Z,68.61
2023-04-11T11:55:43.907Z,68.40
2023-04-11T11:58:12.924Z,69.17
2023-04-11T12:00:42.885Z,68.51
2023-04-11T12:03:11.282Z,68.53
2023-04-11T12:05:39.523Z,69.49
2023-04-11T12:08:09.502Z,69.21
2023-04-11T12:10:40.573Z,68.37
2023-04-11T12:13:16.290Z,70.23
2023-04-11T12:15:51.389Z,71.49
2023-04-11T12:18:21.937Z,72.98
2023-04-11T12:20:50.306Z,75.35
2023-04-11T12:23:18.679Z,77.23
2023-04-11T12:25:47.120Z,77.69
2023-04-11T12:28:15.378Z,77.66
2023-04-11T12:30:43.462Z,78.62
2023-04-11T12:33:12.837Z,79.00
2023-04-11T12:35:40.860Z,80.11
2023-04-11T12:38:09.726Z,80.34
2023-04-11T12:40:38.715Z,78.65
2023-04-11T12:43:06.618Z,79.67
2023-04-11T12:45:34.813Z,78.39
2023-04-11T12:48:02.718Z,78.37
2023-04-11T12:50:32.069Z,77.21
2023-04-11T12:52:59.997Z,77.19
2023-04-11T12:55:28.738Z,76.38
2023-04-11T12:57:56.757Z,76.92
2023-04-11T13:00:25.388Z,75.56
2023-04-11T13:02:57.970Z,76.06
2023-04-11T13:05:26.292Z,76.45
2023-04-11T13:07:55.616Z,77.02
2023-04-11T13:10:23.764Z,77.25
2023-04-11T13:12:53.343Z,76.57
2023-04-11T13:15:21.373Z,76.60
2023-04-11T13:17:49.400Z,76.32
2023-04-11T13:20:17.589Z,75.82
2023-04-11T13:22:45.551Z,75.69
2023-04-11T13:25:14.988Z,75.67
2023-04-11T13:27:42.977Z,76.49
2023-04-11T13:30:11.861Z,77.16
2023-04-11T13:32:40.059Z,77.76
2023-04-11T13:35:09.089Z,76.30
2023-04-11T13:37:37.066Z,76.31
2023-04-11T13:40:08.638Z,76.09
2023-04-11T13:42:38.023Z,76.94
2023-04-11T13:45:06.570Z,77.55
2023-04-11T13:47:37.641Z,76.89
2023-04-11T13:50:08.470Z,77.17
2023-04-11T13:52:36.472Z,77.71
2023-04-11T13:55:04.911Z,78.17
2023-04-11T13:57:32.814Z,77.07
2023-04-11T14:00:05.465Z,76.87
2023-04-11T14:02:33.572Z,77.12
2023-04-11T14:05:01.805Z,77.50
2023-04-11T14:07:30.112Z,73.92
2023-04-11T14:09:57.980Z,75.21
2023-04-11T14:12:25.907Z,73.90
2023-04-11T14:14:53.789Z,75.96
2023-04-11T14:17:23.226Z,75.59
2023-04-11T14:19:51.212Z,76.26
2023-04-11T14:22:19.173Z,76.31
2023-04-11T14:24:47.104Z,77.79
2023-04-11T14:27:15.064Z,77.33
2023-04-11T14:29:43.005Z,76.89
2023-04-11T14:32:11.002Z,77.21
2023-04-11T14:34:40.372Z,77.51
2023-04-11T14:37:08.781Z,77.00
2023-04-11T14:39:39.029Z,78.94
2023-04-11T14:42:07.242Z,79.31
2023-04-11T14:44:35.677Z,78.09
2023-04-11T14:47:04.440Z,78.74
2023-04-11T14:49:32.330Z,78.65
2023-04-11T14:52:02.361Z,78.78
2023-04-11T14:54:30.261Z,78.57
2023-04-11T14:56:58.637Z,77.48
2023-04-11T14:59:27.264Z,75.54
2023-04-11T15:01:55.212Z,75.06
2023-04-11T15:04:23.354Z,75.55
2023-04-11T15:06:51.341Z,75.91
2023-04-11T15:09:22.501Z,76.97
2023-04-11T15:11:50.458Z,77.06
2023-04-11T15:14:20.145Z,77.82
2023-04-11T15:16:48.048Z,78.92
2023-04-11T15:19:15.972Z,79.74
2023-04-11T15:21:46.162Z,79.29
2023-04-11T15:24:14.109Z,78.93
2023-04-11T15:26:44.499Z,77.94
2023-04-11T15:29:15.769Z,76.77
2023-04-11T15:31:43.821Z,75.75
2023-04-11T15:34:14.129Z,76.56
2023-04-11T15:36:42.596Z,76.57
2023-04-11T15:39:10.527Z,75.47
2023-04-11T15:41:38.457Z,76.12
2023-04-11T15:44:08.009Z,77.15
2023-04-11T15:46:36.082Z,77.13
2023-04-11T15:49:04.018Z,77.21
2023-04-11T15:51:32.056Z,76.11
2023-04-11T15:53:59.998Z,76.62
2023-04-11T15:56:28.294Z,76.45
2023-04-11T15:58:56.473Z,76.09
2023-04-11T16:01:26.177Z,75.87
2023-04-11T16:03:55.352Z,77.22
2023-04-11T16:06:23.447Z,76.66
2023-04-11T16:08:51.763Z,76.76
2023-04-11T16:11:19.706Z,76.84
2023-04-11T16:13:47.839Z,77.89
2023-04-11T16:16:15.929Z,78.17
2023-04-11T16:18:45.302Z,79.10
2023-04-11T16:21:14.447Z,78.82
2023-04-11T16:23:42.388Z,79.34
2023-04-11T16:26:10.545Z,78.74
2023-04-11T16:28:38.437Z,78.46
2023-04-11T16:31:09.377Z,77.10
2023-04-11T16:33:37.315Z,77.12
2023-04-11T16:36:07.551Z,75.14
2023-04-11T16:38:35.478Z,74.60
2023-04-11T16:41:03.494Z,75.97
2023-04-11T16:43:31.443Z,77.16
2023-04-11T16:46:02.286Z,77.30
2023-04-11T16:48:31.653Z,78.12
2023-04-11T16:50:59.609Z,78.55
2023-04-11T16:53:28.914Z,78.15
2023-04-11T16:55:57.995Z,78.96
2023-04-11T16:58:27.492Z,78.41
2023-04-11T17:00:55.417Z,79.07
2023-04-11T17:03:23.715Z,79.15
2023-04-11T17:05:54.727Z,79.76
2023-04-11T17:08:22.707Z,79.76
2023-04-11T17:10:52.069Z,79.79
2023-04-11T17:13:20.066Z,78.82
2023-04-11T17:15:47.999Z,78.43
2023-04-11T17:18:15.933Z,78.57
2023-04-11T17:20:46.672Z,77.83
2023-04-11T17:23:14.731Z,78.75
2023-04-11T17:25:42.649Z,78.54
2023-04-11T17:28:12.161Z,78.57
2023-04-11T17:30:40.106Z,78.64
2023-04-11T17:33:08.704Z,78.35
2023-04-11T17:35:36.812Z,79.47
2023-04-11T17:38:04.768Z,79.15
2023-04-11T17:40:32.714Z,78.88
2023-04-11T17:43:00.660Z,79.57
2023-04-11T17:45:29.977Z,79.28
2023-04-11T17:47:57.902Z,80.65
2023-04-11T17:50:25.908Z,79.09
2023-04-11T17:52:54.125Z,79.83
2023-04-11T17:55:22.051Z,78.19
2023-04-11T17:57:50.039Z,78.95
2023-04-11T18:00:22.149Z,78.32
2023-04-11T18:02:52.812Z,79.08
2023-04-11T18:05:24.398Z,77.88
2023-04-11T18:07:54.768Z,77.80
2023-04-11T18:10:23.124Z,77.28
2023-04-11T18:12:52.558Z,77.28
2023-04-11T18:15:21.117Z,77.29
2023-04-11T18:17:49.390Z,77.17
2023-04-11T18:20:18.810Z,77.89
2023-04-11T18:22:47.935Z,78.51
2023-04-11T18:25:15.919Z,78.07
2023-04-11T18:27:43.844Z,78.59
2023-04-11T18:30:13.433Z,78.29
2023-04-11T18:32:46.544Z,78.31
2023-04-11T18:35:21.305Z,78.20
2023-04-11T18:37:49.541Z,78.48
2023-04-11T18:40:18.111Z,78.13
2023-04-11T18:42:48.204Z,77.06
2023-04-11T18:45:18.130Z,76.29
2023-04-11T18:47:46.436Z,76.30
2023-04-11T18:50:14.826Z,74.92
2023-04-11T18:52:45.519Z,75.61
2023-04-11T18:55:14.259Z,78.57
2023-04-11T18:57:47.018Z,78.02
2023-04-11T19:00:19.000Z,77.43
2023-04-11T19:02:47.687Z,76.52
2023-04-11T19:05:16.503Z,75.55
2023-04-11T19:07:46.703Z,75.60
2023-04-11T19:10:14.843Z,75.38
2023-04-11T19:12:42.785Z,75.01
2023-04-11T19:15:11.774Z,74.59
2023-04-11T19:17:39.890Z,75.47
2023-04-11T19:20:12.375Z,76.92
2023-04-11T19:22:41.277Z,75.44
2023-04-11T19:25:12.130Z,75.30
2023-04-11T19:27:41.648Z,76.05
2023-04-11T19:30:11.553Z,75.96
2023-04-11T19:32:43.205Z,75.08
2023-04-11T19:35:11.866Z,74.84
2023-04-11T19:37:40.215Z,76.14
2023-04-11T19:40:12.380Z,78.52
2023-04-11T19:42:40.593Z,77.15
2023-04-11T19:45:10.558Z,76.48
2023-04-11T19:47:39.768Z,76.18
2023-04-11T19:50:09.070Z,75.94
2023-04-11T19:52:37.007Z,76.12
2023-04-11T19:55:05.391Z,76.47
2023-04-11T19:57:34.719Z,76.27
2023-04-11T20:00:09.408Z,75.86
2023-04-11T20:02:37.600Z,75.53
2023-04-11T20:05:06.953Z,75.87
2023-04-11T20:07:35.209Z,75.52
2023-04-11T20:10:04.461Z,76.09
2023-04-11T20:12:32.368Z,75.50
2023-04-11T20:15:01.640Z,75.17
2023-04-11T20:17:29.730Z,75.50
2023-04-11T20:19:57.840Z,76.94
2023-04-11T20:22:25.918Z,75.63
2023-04-11T20:24:53.803Z,74.92
2023-04-11T20:27:21.887Z,74.92
2023-04-11T20:29:49.913Z,74.62
2023-04-11T20:32:19.317Z,74.91
2023-04-11T20:34:47.256Z,74.76
2023-04-11T20:37:17.049Z,74.76
2023-04-11T20:39:46.812Z,74.47
2023-04-11T20:42:15.322Z,74.13
2023-04-11T20:44:43.828Z,74.21
2023-04-11T20:47:11.756Z,74.22
2023-04-11T20:49:41.630Z,74.13
2023-04-11T20:52:11.018Z,74.78
2023-04-11T20:54:39.381Z,75.05
2023-04-11T20:57:07.463Z,75.03
2023-04-11T20:59:35.592Z,75.21
2023-04-11T21:02:03.583Z,75.05
2023-04-11T21:04:31.992Z,74.97
2023-04-11T21:07:01.348Z,74.65
2023-04-11T21:09:29.247Z,74.50
2023-04-11T21:11:57.168Z,74.62
2023-04-11T21:14:25.082Z,74.65
2023-04-11T21:16:53.020Z,75.02
2023-04-11T21:19:20.906Z,76.68
2023-04-11T21:21:48.836Z,78.43
2023-04-11T21:24:20.203Z,77.36
2023-04-11T21:26:48.302Z,77.50
2023-04-11T21:29:16.206Z,77.53
2023-04-11T21:31:44.233Z,76.02
2023-04-11T21:34:12.217Z,76.14
2023-04-11T21:36:40.254Z,75.96
2023-04-11T21:39:08.525Z,76.21
2023-04-11T21:41:37.828Z,75.98
2023-04-11T21:44:05.817Z,75.48
2023-04-11T21:46:34.488Z,75.06
2023-04-11T21:49:02.500Z,74.77
2023-04-11T21:51:30.864Z,74.98
2023-04-11T21:53:59.091Z,75.03
2023-04-11T21:56:27.325Z,75.30
2023-04-11T21:58:56.579Z,75.29
2023-04-11T22:01:24.605Z,75.45
2023-04-11T22:03:52.758Z,74.92
2023-04-11T22:06:22.691Z,75.13
2023-04-11T22:08:51.373Z,75.42
2023-04-11T22:11:20.375Z,75.65
2023-04-11T22:13:48.328Z,75.88
2023-04-11T22:16:17.651Z,76.02
2023-04-11T22:18:49.141Z,75.56
2023-04-11T22:21:19.778Z,76.30
2023-04-11T22:23:49.827Z,77.92
2023-04-11T22:26:17.747Z,79.13
2023-04-11T22:28:46.315Z,78.83
2023-04-11T22:31:14.651Z,77.68
2023-04-11T22:33:44.007Z,77.48
2023-04-11T22:36:11.971Z,77.15
2023-04-11T22:38:40.306Z,78.33
2023-04-11T22:41:14.852Z,78.44
2023-04-11T22:43:42.889Z,77.35
2023-04-11T22:46:10.869Z,76.71
2023-04-11T22:48:39.029Z,77.53
2023-04-11T22:51:09.248Z,76.97
2023-04-11T22:53:42.071Z,77.79
2023-04-11T22:56:11.056Z,77.05
2023-04-11T22:58:39.779Z,76.82
2023-04-11T23:01:08.170Z,76.75
2023-04-11T23:03:36.658Z,76.89
2023-04-11T23:06:04.668Z,76.96
2023-04-11T23:08:33.991Z,76.71
2023-04-11T23:11:01.887Z,77.70
2023-04-11T23:13:29.930Z,77.05
2023-04-11T23:15:58.046Z,76.58
2023-04-11T23:18:26.022Z,76.56
2023-04-11T23:20:53.909Z,76.32
2023-04-11T23:23:21.815Z,77.44
2023-04-11T23:25:51.248Z,76.79
2023-04-11T23:28:19.187Z,77.06
2023-04-11T23:30:47.120Z,77.12
2023-04-11T23:33:15.281Z,77.86
2023-04-11T23:35:43.294Z,77.08
2023-04-11T23:38:11.624Z,77.50
2023-04-11T23:40:39.829Z,76.96
2023-04-11T23:43:09.296Z,76.89
2023-04-11T23:45:37.173Z,77.66
2023-04-11T23:48:05.485Z,77.42
2023-04-11T23:50:33.449Z,76.97
2023-04-11T23:53:01.465Z,77.08
2023-04-11T23:55:29.912Z,78.37
2023-04-11T23:57:57.815Z,77.93
